createdAt,value
2023-01-25T00:02:08.001Z,29.20
2023-01-25T00:05:10.961Z,29.93
2023-01-25T00:08:13.579Z,29.57
2023-01-25T00:11:17.017Z,28.80
2023-01-25T00:14:20.987Z,27.87
2023-01-25T00:17:23.594Z,25.00
2023-01-25T00:20:27.568Z,27.00
2023-01-25T00:23:30.125Z,29.27
2023-01-25T00:26:33.263Z,24.80
2023-01-25T00:30:13.579Z,26.13
2023-01-25T00:33:40.811Z,26.13
2023-01-25T00:36:45.344Z,26.53
2023-01-25T00:39:47.945Z,21.67
2023-01-25T00:42:50.557Z,23.77
2023-01-25T00:46:01.602Z,25.90
2023-01-25T00:49:04.462Z,24.20
2023-01-25T00:52:07.447Z,23.47
2023-01-25T00:55:10.905Z,23.47
2023-01-25T00:58:13.479Z,23.00
2023-01-25T01:01:17.499Z,24.07
2023-01-25T01:04:20.614Z,24.50
2023-01-25T01:07:23.338Z,22.30
2023-01-25T01:10:25.985Z,27.53
2023-01-25T01:13:28.669Z,23.03
2023-01-25T01:16:33.191Z,24.03
2023-01-25T01:19:36.105Z,21.53
2023-01-25T01:22:38.687Z,21.87
2023-01-25T01:25:41.321Z,23.20
2023-01-25T01:28:44.102Z,23.20
2023-01-25T01:31:51.296Z,22.30
2023-01-25T01:34:53.970Z,22.83
2023-01-25T01:37:56.607Z,24.67
2023-01-25T01:40:59.198Z,25.73
2023-01-25T01:44:01.810Z,23.83
2023-01-25T01:47:06.009Z,21.70
2023-01-25T01:50:19.541Z,19.67
2023-01-25T01:53:25.371Z,21.27
2023-01-25T01:56:34.201Z,22.67
2023-01-25T01:59:39.982Z,24.37
2023-01-25T02:02:44.003Z,21.23
2023-01-25T02:05:53.781Z,24.80
2023-01-25T02:08:57.476Z,30.23
2023-01-25T02:12:00.936Z,24.07
2023-01-25T02:15:03.556Z,21.30
2023-01-25T02:18:07.691Z,25.13
2023-01-25T02:21:11.246Z,24.17
2023-01-25T02:24:21.374Z,21.97
2023-01-25T02:27:25.522Z,20.67
2023-01-25T02:30:28.793Z,25.73
2023-01-25T02:33:31.642Z,24.73
2023-01-25T02:36:36.068Z,24.93
2023-01-25T02:39:38.883Z,24.47
2023-01-25T02:42:45.907Z,22.93
2023-01-25T02:45:53.279Z,25.23
2023-01-25T02:48:56.836Z,23.67
2023-01-25T02:51:59.390Z,23.00
2023-01-25T02:55:02.051Z,23.63
2023-01-25T02:58:06.052Z,22.17
2023-01-25T03:01:08.990Z,21.73
2023-01-25T03:04:11.983Z,28.27
2023-01-25T03:07:14.620Z,26.50
2023-01-25T03:10:17.327Z,24.67
2023-01-25T03:13:21.256Z,28.43
2023-01-25T03:16:24.002Z,28.37
2023-01-25T03:19:26.618Z,26.20
2023-01-25T03:22:29.214Z,24.23
2023-01-25T03:25:31.828Z,25.67
2023-01-25T03:28:35.955Z,23.13
2023-01-25T03:31:38.632Z,20.90
2023-01-25T03:34:41.286Z,19.80
2023-01-25T03:37:43.899Z,19.10
2023-01-25T03:40:46.581Z,19.47
2023-01-25T03:43:50.771Z,19.00
2023-01-25T03:46:53.381Z,18.00
2023-01-25T03:49:55.995Z,15.97
2023-01-25T03:53:02.552Z,17.00
2023-01-25T03:56:08.254Z,16.00
2023-01-25T03:59:13.463Z,16.07
2023-01-25T04:02:16.079Z,16.23
2023-01-25T04:05:18.768Z,18.80
2023-01-25T04:08:22.026Z,20.30
2023-01-25T04:11:24.607Z,15.00
2023-01-25T04:14:43.393Z,18.37
2023-01-25T04:17:46.422Z,16.03
2023-01-25T04:20:53.653Z,13.87
2023-01-25T04:23:56.276Z,15.90
2023-01-25T04:26:58.856Z,18.00
2023-01-25T04:30:02.855Z,16.13
2023-01-25T04:33:06.736Z,17.50
2023-01-25T04:36:09.879Z,15.30
2023-01-25T04:39:12.479Z,15.23
2023-01-25T04:42:15.067Z,15.43
2023-01-25T04:45:19.006Z,12.53
2023-01-25T04:48:21.573Z,17.60
2023-01-25T04:51:24.208Z,13.53
2023-01-25T04:54:26.831Z,14.57
2023-01-25T04:57:29.500Z,17.47
2023-01-25T05:00:33.675Z,16.97
2023-01-25T05:03:36.260Z,17.90
2023-01-25T05:06:38.906Z,15.27
2023-01-25T05:09:41.491Z,15.67
2023-01-25T05:12:44.634Z,17.80
2023-01-25T05:15:48.557Z,14.17
2023-01-25T05:18:51.153Z,18.57
2023-01-25T05:21:59.750Z,16.83
2023-01-25T05:25:03.694Z,16.87
2023-01-25T05:28:06.530Z,19.33
2023-01-25T05:31:10.578Z,16.33
2023-01-25T05:34:13.391Z,17.10
2023-01-25T05:37:18.301Z,18.13
2023-01-25T05:40:20.935Z,16.13
2023-01-25T05:43:24.217Z,16.03
2023-01-25T05:46:29.870Z,18.93
2023-01-25T05:49:32.457Z,17.10
2023-01-25T05:52:35.076Z,18.47
2023-01-25T05:55:37.686Z,18.40
2023-01-25T05:58:40.646Z,16.20
2023-01-25T06:01:44.727Z,17.07
2023-01-25T06:04:47.343Z,20.97
2023-01-25T06:07:49.924Z,16.73
2023-01-25T06:10:52.567Z,17.63
2023-01-25T06:13:55.188Z,16.73
2023-01-25T06:16:59.157Z,19.10
2023-01-25T06:20:01.734Z,19.23
2023-01-25T06:23:04.329Z,17.83
2023-01-25T06:26:09.408Z,19.00
2023-01-25T06:29:12.142Z,18.57
2023-01-25T06:32:16.164Z,17.47
2023-01-25T06:35:18.947Z,20.00
2023-01-25T06:38:21.521Z,20.90
2023-01-25T06:41:24.145Z,19.23
2023-01-25T06:44:26.817Z,19.77
2023-01-25T06:47:30.795Z,18.00
2023-01-25T06:50:33.399Z,22.53
2023-01-25T06:53:38.281Z,19.20
2023-01-25T06:56:40.879Z,20.43
2023-01-25T06:59:43.473Z,19.70
2023-01-25T07:02:47.493Z,18.53
2023-01-25T07:05:51.034Z,18.77
2023-01-25T07:08:53.847Z,16.57
2023-01-25T07:11:56.451Z,18.47
2023-01-25T07:14:59.096Z,16.30
2023-01-25T07:18:15.448Z,18.23
2023-01-25T07:21:21.188Z,17.70
2023-01-25T07:24:26.988Z,18.83
2023-01-25T07:27:29.677Z,17.60
2023-01-25T07:30:32.248Z,18.20
2023-01-25T07:33:36.744Z,18.90
2023-01-25T07:36:39.551Z,18.17
2023-01-25T07:39:48.061Z,18.33
2023-01-25T07:42:52.079Z,18.00
2023-01-25T07:45:55.131Z,19.70
2023-01-25T07:48:59.268Z,20.87
2023-01-25T07:52:01.864Z,21.83
2023-01-25T07:55:05.457Z,21.37
2023-01-25T07:58:08.429Z,21.90
2023-01-25T08:01:12.378Z,18.60
2023-01-25T08:04:16.304Z,23.17
2023-01-25T08:07:20.099Z,22.37
2023-01-25T08:10:22.720Z,23.80
2023-01-25T08:13:25.317Z,23.77
2023-01-25T08:16:27.988Z,25.10
2023-01-25T08:19:31.979Z,27.73
2023-01-25T08:22:34.621Z,23.07
2023-01-25T08:25:37.272Z,22.50
2023-01-25T08:28:40.012Z,22.00
2023-01-25T08:31:43.839Z,21.23
2023-01-25T08:34:48.465Z,24.37
2023-01-25T08:37:51.054Z,21.17
2023-01-25T08:40:53.640Z,25.10
2023-01-25T08:43:57.546Z,23.73
2023-01-25T08:47:00.111Z,23.50
2023-01-25T08:50:04.315Z,21.37
2023-01-25T08:53:06.895Z,18.50
2023-01-25T08:56:11.681Z,20.23
2023-01-25T08:59:14.862Z,22.90
2023-01-25T09:02:19.278Z,24.10
2023-01-25T09:05:23.223Z,22.17
2023-01-25T09:08:25.967Z,23.27
2023-01-25T09:11:28.586Z,24.30
2023-01-25T09:14:31.184Z,21.37
2023-01-25T09:17:33.777Z,25.10
2023-01-25T09:20:39.361Z,27.17
2023-01-25T09:23:57.464Z,23.90
2023-01-25T09:27:06.969Z,29.10
2023-01-25T09:30:18.213Z,24.47
2023-01-25T09:33:21.206Z,26.07
2023-01-25T09:36:25.203Z,27.70
2023-01-25T09:39:27.812Z,24.67
2023-01-25T09:42:45.421Z,25.30
2023-01-25T09:45:48.572Z,26.37
2023-01-25T09:49:07.658Z,28.47
2023-01-25T09:52:30.013Z,24.23
2023-01-25T09:55:34.210Z,24.67
2023-01-25T09:58:41.284Z,25.23
2023-01-25T10:01:50.092Z,23.97
2023-01-25T10:04:54.735Z,26.70
2023-01-25T10:08:07.070Z,24.93
2023-01-25T10:11:25.777Z,25.60
2023-01-25T10:14:28.360Z,30.87
2023-01-25T10:17:36.837Z,30.10
2023-01-25T10:20:48.218Z,25.43
2023-01-25T10:24:11.458Z,28.83
2023-01-25T10:27:27.407Z,29.63
2023-01-25T10:30:32.289Z,26.83
2023-01-25T10:33:40.652Z,30.93
2023-01-25T10:36:45.154Z,30.90
2023-01-25T10:39:55.677Z,29.77
2023-01-25T10:43:03.396Z,32.07
2023-01-25T10:46:17.179Z,29.60
2023-01-25T10:49:25.218Z,32.30
2023-01-25T10:52:30.174Z,36.53
2023-01-25T10:55:34.462Z,31.67
2023-01-25T10:58:39.096Z,30.60
2023-01-25T11:01:41.721Z,35.37
2023-01-25T11:04:46.161Z,31.23
2023-01-25T11:07:49.441Z,34.50
2023-01-25T11:10:54.367Z,34.10
2023-01-25T11:13:57.029Z,31.10
2023-01-25T11:17:02.612Z,36.53
2023-01-25T11:20:21.436Z,39.13
2023-01-25T11:23:26.656Z,39.87
2023-01-25T11:26:32.426Z,39.43
2023-01-25T11:29:36.256Z,39.60
2023-01-25T11:32:40.424Z,37.90
2023-01-25T11:36:07.232Z,42.00
2023-01-25T11:39:21.749Z,42.90
2023-01-25T11:42:39.288Z,42.80
2023-01-25T11:46:01.751Z,43.40
2023-01-25T11:49:17.749Z,40.40
2023-01-25T11:52:32.861Z,44.27
2023-01-25T11:55:45.237Z,41.17
2023-01-25T11:59:08.084Z,41.07
2023-01-25T12:02:28.330Z,36.23
2023-01-25T12:05:44.642Z,32.93
2023-01-25T12:09:02.255Z,34.27
2023-01-25T12:12:17.577Z,36.57
2023-01-25T12:15:32.990Z,35.17
2023-01-25T12:19:01.788Z,42.63
2023-01-25T12:22:30.698Z,31.83
2023-01-25T12:25:42.223Z,34.60
2023-01-25T12:28:49.283Z,36.67
2023-01-25T12:31:58.228Z,37.50
2023-01-25T12:35:20.363Z,36.00
2023-01-25T12:38:27.651Z,36.67
2023-01-25T12:41:39.148Z,37.83
2023-01-25T12:44:45.871Z,40.83
2023-01-25T12:47:54.928Z,39.00
2023-01-25T12:50:58.700Z,33.60
2023-01-25T12:54:07.395Z,30.20
2023-01-25T12:57:20.439Z,32.57
2023-01-25T13:00:28.178Z,32.77
2023-01-25T13:03:48.867Z,30.93
2023-01-25T13:06:58.227Z,33.00
2023-01-25T13:10:06.712Z,34.83
2023-01-25T13:13:22.875Z,35.97
2023-01-25T13:16:43.138Z,35.50
2023-01-25T13:19:47.083Z,33.97
2023-01-25T13:23:01.444Z,32.43
2023-01-25T13:26:38.196Z,36.37
2023-01-25T13:29:47.062Z,36.17
2023-01-25T13:33:01.480Z,34.13
2023-01-25T13:36:47.074Z,34.93
2023-01-25T13:39:52.057Z,34.57
2023-01-25T13:43:00.722Z,39.37
2023-01-25T13:46:08.115Z,33.73
2023-01-25T13:49:22.049Z,37.37
2023-01-25T13:52:27.421Z,32.10
2023-01-25T13:55:38.464Z,32.73
2023-01-25T13:58:47.814Z,32.83
2023-01-25T14:01:50.640Z,31.13
2023-01-25T14:04:54.525Z,33.57
2023-01-25T14:07:58.557Z,33.93
2023-01-25T14:11:01.354Z,32.37
2023-01-25T14:14:17.215Z,33.97
2023-01-25T14:17:22.443Z,32.50
2023-01-25T14:20:25.625Z,32.63
2023-01-25T14:23:31.093Z,32.83
2023-01-25T14:26:37.977Z,33.40
2023-01-25T14:29:40.765Z,34.60
2023-01-25T14:32:43.509Z,34.67
2023-01-25T14:35:55.679Z,32.60
2023-01-25T14:39:03.168Z,32.90
2023-01-25T14:42:07.305Z,34.63
2023-01-25T14:45:14.242Z,35.83
2023-01-25T14:48:37.279Z,34.97
2023-01-25T14:51:43.709Z,31.43
2023-01-25T14:54:52.353Z,33.97
2023-01-25T14:58:00.775Z,36.47
2023-01-25T15:01:04.029Z,39.00
2023-01-25T15:04:12.527Z,33.70
2023-01-25T15:07:34.431Z,36.93
2023-01-25T15:10:39.740Z,34.87
2023-01-25T15:13:42.334Z,36.67
2023-01-25T15:16:45.306Z,37.73
2023-01-25T15:19:53.291Z,37.03
2023-01-25T15:22:56.959Z,39.43
2023-01-25T15:26:03.679Z,40.80
2023-01-25T15:29:14.435Z,44.27
2023-01-25T15:32:21.113Z,43.67
2023-01-25T15:35:23.794Z,46.33
2023-01-25T15:38:26.792Z,49.03
2023-01-25T15:41:30.728Z,51.20
2023-01-25T15:44:33.341Z,48.43
2023-01-25T15:47:36.709Z,45.20
2023-01-25T15:50:39.294Z,45.00
2023-01-25T15:53:42.001Z,46.33
2023-01-25T15:56:48.067Z,50.73
2023-01-25T15:59:50.668Z,45.00
2023-01-25T16:02:53.291Z,45.73
2023-01-25T16:05:59.877Z,51.03
2023-01-25T16:09:06.846Z,49.63
2023-01-25T16:12:11.215Z,47.43
2023-01-25T16:15:13.941Z,49.30
2023-01-25T16:18:16.529Z,48.23
2023-01-25T16:21:19.140Z,47.93
2023-01-25T16:24:21.778Z,44.93
2023-01-25T16:27:27.859Z,50.83
2023-01-25T16:30:32.490Z,51.07
2023-01-25T16:33:35.140Z,50.10
2023-01-25T16:36:39.511Z,52.53
2023-01-25T16:39:42.624Z,45.40
2023-01-25T16:42:46.578Z,44.83
2023-01-25T16:45:49.192Z,44.30
2023-01-25T16:48:53.112Z,52.17
2023-01-25T16:51:56.350Z,44.03
2023-01-25T16:54:59.516Z,42.77
2023-01-25T16:58:03.525Z,39.63
2023-01-25T17:01:10.008Z,41.87
2023-01-25T17:04:13.532Z,38.50
2023-01-25T17:07:16.128Z,33.53
2023-01-25T17:10:18.793Z,35.83
2023-01-25T17:13:22.727Z,33.17
2023-01-25T17:16:27.462Z,35.40
2023-01-25T17:19:30.242Z,37.03
2023-01-25T17:22:37.314Z,32.40
2023-01-25T17:25:40.712Z,28.77
2023-01-25T17:28:45.569Z,34.72
2023-01-25T17:31:49.328Z,30.17
2023-01-25T17:34:51.932Z,29.20
2023-01-25T17:37:54.920Z,24.57
2023-01-25T17:40:57.538Z,29.93
2023-01-25T17:44:01.598Z,27.93
2023-01-25T17:47:04.194Z,27.47
2023-01-25T17:50:08.230Z,28.73
2023-01-25T17:53:11.966Z,25.70
2023-01-25T17:56:15.225Z,30.53
2023-01-25T17:59:19.191Z,27.10
2023-01-25T18:02:21.833Z,29.13
2023-01-25T18:05:24.463Z,26.87
2023-01-25T18:08:27.124Z,25.10
2023-01-25T18:11:31.814Z,27.17
2023-01-25T18:14:35.848Z,29.33
2023-01-25T18:17:39.103Z,27.43
2023-01-25T18:20:41.931Z,25.40
2023-01-25T18:23:47.679Z,27.10
2023-01-25T18:26:51.682Z,31.07
2023-01-25T18:30:00.242Z,32.93
2023-01-25T18:33:02.915Z,35.90
2023-01-25T18:36:06.289Z,30.23
2023-01-25T18:39:09.683Z,33.73
2023-01-25T18:42:12.307Z,36.03
2023-01-25T18:45:16.415Z,36.43
2023-01-25T18:48:20.264Z,36.77
2023-01-25T18:51:23.183Z,33.07
2023-01-25T18:54:25.789Z,39.93
2023-01-25T18:57:28.832Z,31.33
2023-01-25T19:00:33.791Z,31.43
2023-01-25T19:03:36.722Z,33.53
2023-01-25T19:06:39.323Z,28.63
2023-01-25T19:09:43.452Z,30.83
2023-01-25T19:12:46.079Z,35.63
2023-01-25T19:15:50.088Z,39.33
2023-01-25T19:18:54.374Z,36.63
2023-01-25T19:21:56.966Z,43.40
2023-01-25T19:24:59.550Z,44.90
2023-01-25T19:28:02.232Z,45.47
2023-01-25T19:31:09.694Z,42.50
2023-01-25T19:34:12.409Z,97.30
2023-01-25T19:37:14.992Z,56.17
2023-01-25T19:40:18.866Z,49.43
2023-01-25T19:43:21.431Z,47.37
2023-01-25T19:46:27.507Z,49.90
2023-01-25T19:49:30.121Z,51.37
2023-01-25T19:52:32.885Z,57.30
2023-01-25T19:55:35.457Z,59.03
2023-01-25T19:58:38.490Z,66.03
2023-01-25T20:01:43.678Z,58.63
2023-01-25T20:04:46.477Z,55.97
2023-01-25T20:07:49.044Z,63.43
2023-01-25T20:10:51.653Z,64.63
2023-01-25T20:13:56.258Z,65.00
2023-01-25T20:17:00.182Z,70.00
2023-01-25T20:20:02.852Z,67.20
2023-01-25T20:23:05.540Z,65.97
2023-01-25T20:26:09.973Z,61.10
2023-01-25T20:29:13.819Z,57.60
2023-01-25T20:32:32.096Z,62.40
2023-01-25T20:35:35.493Z,62.97
2023-01-25T20:38:38.174Z,58.00
2023-01-25T20:41:40.930Z,45.87
2023-01-25T20:44:43.511Z,44.10
2023-01-25T20:47:47.436Z,41.50
2023-01-25T20:50:50.086Z,40.70
2023-01-25T20:53:54.444Z,37.70
2023-01-25T20:56:57.769Z,39.10
2023-01-25T21:00:00.420Z,43.77
2023-01-25T21:03:04.448Z,59.43
2023-01-25T21:06:07.664Z,55.40
2023-01-25T21:09:12.078Z,62.00
2023-01-25T21:12:15.415Z,58.83
2023-01-25T21:15:18.239Z,59.83
2023-01-25T21:18:22.175Z,66.17
2023-01-25T21:21:27.677Z,60.13
2023-01-25T21:24:30.318Z,59.43
2023-01-25T21:27:32.913Z,54.17
2023-01-25T21:30:35.497Z,56.43
2023-01-25T21:33:40.123Z,58.27
2023-01-25T21:36:42.700Z,58.37
2023-01-25T21:39:45.274Z,63.30
2023-01-25T21:42:48.427Z,67.97
2023-01-25T21:46:08.791Z,72.30
2023-01-25T21:49:31.875Z,71.57
2023-01-25T21:52:36.225Z,73.13
2023-01-25T21:55:39.089Z,69.40
2023-01-25T21:58:41.670Z,75.83
2023-01-25T22:01:44.331Z,73.13
2023-01-25T22:04:48.233Z,71.93
2023-01-25T22:07:50.923Z,77.40
2023-01-25T22:10:53.477Z,72.13
2023-01-25T22:13:56.291Z,78.07
2023-01-25T22:16:58.883Z,74.23
2023-01-25T22:20:02.896Z,75.53
2023-01-25T22:23:05.493Z,75.90
2023-01-25T22:26:09.568Z,78.37
2023-01-25T22:29:12.853Z,76.90
2023-01-25T22:32:15.438Z,74.70
2023-01-25T22:35:19.364Z,80.53
2023-01-25T22:38:21.984Z,76.53
2023-01-25T22:41:26.004Z,79.53
2023-01-25T22:44:28.645Z,74.60
2023-01-25T22:47:31.222Z,81.10
2023-01-25T22:50:35.150Z,74.03
2023-01-25T22:53:37.759Z,76.40
2023-01-25T22:56:40.440Z,72.97
2023-01-25T22:59:43.048Z,76.63
2023-01-25T23:02:45.703Z,74.67
2023-01-25T23:05:49.816Z,74.50
2023-01-25T23:08:55.602Z,71.63
2023-01-25T23:11:58.408Z,69.53
2023-01-25T23:15:06.991Z,69.87
2023-01-25T23:18:27.482Z,73.03
2023-01-25T23:21:32.010Z,72.23
2023-01-25T23:24:34.699Z,77.17
2023-01-25T23:27:37.307Z,67.40
2023-01-25T23:30:39.911Z,78.90
2023-01-25T23:33:42.530Z,71.70
2023-01-25T23:36:46.456Z,69.60
2023-01-25T23:39:49.892Z,65.70
2023-01-25T23:42:52.455Z,69.77
2023-01-25T23:45:55.038Z,73.07
2023-01-25T23:48:57.677Z,72.87
2023-01-25T23:52:01.667Z,68.07
2023-01-25T23:55:05.545Z,69.63
2023-01-25T23:58:08.115Z,67.57
